• Join FlightAware (Why Join?)
  • Login
  • US Flag 
Rudolph Flight #1: Arrived! 
04:06AM EST


 

Airport Tracker/Info


-or-


 

Live Flight TrackerFlight Track Log ✈ SKW6306 ✈ 21-Jun-2013 ✈ CYXE - KDEN

Flight Track Log - Related Links

Times and Time Zones

All times are in EDT time to prevent confusion due to time zone crossing. See the SKW6306 flight status page for this flight to view local times or setup timezone preferences in your user account.

Time Position Orientation Groundspeed Altitude Reporting Facility
EDT Latitude Longitude Course Direction KTS MPH feet Rate Location/Type
06:05PM 52.1500 -106.7333 225° Southwest 10 12 1,700  Level Winnipeg Center
06:06PM 52.1500 -106.7500 270° West 30 35 1,700  Level Winnipeg Center
06:07PM 52.1667 -106.7500 360° North 10 12 1,700  Level Winnipeg Center
06:08PM 52.1500 -106.7333 148° Southeast 20 23 1,700 720 Level Winnipeg Center
06:09PM 52.1500 -106.6667 90° East 150 173 3,200 1,860 Climbing Winnipeg Center
06:10PM 52.1167 -106.6333 148° Southeast 210 242 5,500 2,280 Climbing Winnipeg Center
06:11PM 52.0167 -106.6667 192° South 260 299 7,800 2,400 Climbing Winnipeg Center
06:12PM 51.9667 -106.7167 212° Southwest 260 299 10,400 2,100 Climbing Winnipeg Center
06:13PM 51.9000 -106.7500 197° South 280 322 12,000 1,800 Climbing Winnipeg Center
06:14PM 51.8167 -106.7833 194° South 310 357 14,000 1,920 Climbing Winnipeg Center
06:15PM 51.7167 -106.8500 202° Southwest 320 368 15,900 1,680 Climbing Winnipeg Center
06:16PM 51.6333 -106.9167 206° Southwest 330 380 17,400 1,500 Climbing Winnipeg Center
06:17PM 51.5500 -106.9500 194° South 340 391 18,900 1,560 Climbing Winnipeg Center
06:18PM 51.4500 -107.0000 197° South 350 403 20,600 1,680 Climbing Winnipeg Center
06:19PM 51.3667 -107.0667 207° Southwest 340 391 22,300 1,560 Climbing Winnipeg Center
06:20PM 51.3000 -107.1333 212° Southwest 340 391 23,800 1,380 Climbing Winnipeg Center
06:21PM 51.1833 -107.1667 190° South 340 391 25,100 1,020 Climbing Winnipeg Center
06:22PM 51.1167 -107.2333 212° Southwest 340 391 25,900 900 Climbing Winnipeg Center
06:23PM 51.0167 -107.2833 197° South 350 403 26,900 900 Climbing Winnipeg Center
06:24PM 50.9167 -107.3500 203° Southwest 350 403 27,800 840 Climbing Winnipeg Center
06:25PM 50.8333 -107.3833 194° South 350 403 28,600 840 Climbing Winnipeg Center
06:26PM 50.7500 -107.4333 201° Southwest 340 391 29,500 780 Climbing Winnipeg Center
06:27PM 50.6500 -107.5000 203° Southwest 340 391 30,200 600 Climbing Winnipeg Center
06:28PM 50.5667 -107.5500 201° Southwest 350 403 30,700 480 Climbing Winnipeg Center
06:29PM 50.4667 -107.6167 203° Southwest 350 403 31,200 480 Climbing Winnipeg Center
06:30PM 50.3833 -107.6667 201° Southwest 360 414 31,700 480 Climbing Winnipeg Center
06:31PM 50.2833 -107.7000 192° South 360 414 32,200 420 Climbing Winnipeg Center
06:32PM 50.2000 -107.7333 194° South 360 414 32,600 360 Climbing Winnipeg Center
06:33PM 50.1000 -107.7333 180° South 360 414 33,000 180 Climbing Winnipeg Center
06:34PM 49.9833 -107.7667 190° South 370 426 33,000  Level Winnipeg Center
06:35PM 49.8833 -107.7667 180° South 370 426 33,000  Level Winnipeg Center
06:36PM 49.7667 -107.7667 180° South 380 437 33,000  Level Winnipeg Center
06:37PM 49.6667 -107.8000 192° South 380 437 33,000  Level Winnipeg Center
06:38PM 49.5667 -107.8000 180° South 380 437 33,000  Level Winnipeg Center
06:39PM 49.4667 -107.8333 192° South 380 437 33,000  Level Winnipeg Center
06:40PM 49.3500 -107.8333 180° South 390 449 33,000  Level Winnipeg Center
06:41PM 49.2333 -107.8333 180° South 380 437 33,000  Level Winnipeg Center
06:42PM 49.1333 -107.8500 186° South 380 437 33,000  Level Winnipeg Center
06:43PM 49.0333 -107.8667 186° South 390 449 33,000  Level Winnipeg Center
06:44PM 48.9333 -107.8667 180° South 380 437 33,000  Level Winnipeg Center
06:45PM 48.8167 -107.8833 185° South 390 449 33,000  Level Winnipeg Center
06:45PM 48.7997 -107.8619 140° Southeast 384 442 33,000 -120 Level Salt Lake Center
06:46PM 48.6928 -107.8728 184° South 385 443 32,900  Descending Salt Lake Center
06:47PM 48.5864 -107.8850 184° South 385 443 33,000  Climbing Salt Lake Center
06:48PM 48.4583 -107.8992 184° South 385 443 33,000  Level Salt Lake Center
06:49PM 48.3536 -107.8914 177° South 381 438 33,000  Level Salt Lake Center
06:50PM 48.2450 -107.8614 170° South 392 451 33,000  Level Salt Lake Center
06:51PM 48.1386 -107.8322 170° South 391 450 33,000  Level Salt Lake Center
06:52PM 48.0328 -107.8039 170° South 390 449 33,000  Level Salt Lake Center
06:53PM 47.9250 -107.7756 170° South 391 450 33,000  Level Salt Lake Center
06:54PM 47.8192 -107.7478 170° South 390 449 33,000  Level Salt Lake Center
06:55PM 47.7139 -107.7192 170° South 388 447 33,000  Level Salt Lake Center
06:56PM 47.5872 -107.6861 170° South 387 445 33,000  Level Salt Lake Center
06:57PM 47.4808 -107.6583 170° South 387 445 33,000  Level Salt Lake Center
06:58PM 47.3719 -107.6292 170° South 392 451 33,000  Level Salt Lake Center
06:59PM 47.2656 -107.6017 170° South 391 450 33,000  Level Salt Lake Center
07:00PM 47.1461 -107.5714 170° South 392 451 33,000  Level Salt Lake Center
07:02PM 47.0383 -107.5431 170° South 394 453 33,000  Level Salt Lake Center
07:03PM 46.9300 -107.5156 170° South 395 455 33,000  Level Salt Lake Center
07:04PM 46.8211 -107.4886 170° South 397 457 33,000  Level Salt Lake Center
07:05PM 46.7117 -107.4603 170° South 400 460 33,000  Level Salt Lake Center
07:06PM 46.6033 -107.4331 170° South 398 458 33,000  Level Salt Lake Center
07:07PM 46.4928 -107.4033 170° South 400 460 33,000  Level Salt Lake Center
07:08PM 46.3719 -107.3722 170° South 398 458 33,000  Level Salt Lake Center
07:09PM 46.2547 -107.3439 171° South 398 458 33,000  Level Salt Lake Center
07:10PM 46.1456 -107.3169 170° South 400 460 33,000  Level Salt Lake Center
07:11PM 46.0264 -107.2878 170° South 404 465 33,000  Level Salt Lake Center
07:12PM 45.9175 -107.2606 170° South 402 463 33,000  Level Salt Lake Center
07:13PM 45.7989 -107.2319 170° South 400 460 33,000  Level Salt Lake Center
07:14PM 45.6897 -107.2058 171° South 402 463 33,000  Level Salt Lake Center
07:15PM 45.5814 -107.1797 170° South 400 460 33,000  Level Salt Lake Center
07:16PM 45.4664 -107.1508 170° South 398 458 33,000  Level Salt Lake Center
07:17PM 45.3547 -107.1206 169° South 402 463 33,000  Level Salt Lake Center
07:18PM 45.1844 -107.0817 171° South 398 458 33,000  Level Denver Center
07:19PM 45.1314 -107.0719 173° South 401 461 33,000  Level Salt Lake Center
07:20PM 45.0250 -107.0472 171° South 403 464 33,000  Level Salt Lake Center
07:21PM 44.9025 -107.0175 170° South 401 461 33,000  Level Salt Lake Center
07:22PM 44.7972 -106.9933 171° South 401 461 33,000  Level Salt Lake Center
07:23PM 44.6753 -106.9636 170° South 399 459 33,000  Level Salt Lake Center
07:24PM 44.5694 -106.9386 170° South 401 461 33,000  Level Salt Lake Center
07:25PM 44.4639 -106.9147 171° South 402 463 33,000  Level Salt Lake Center
07:26PM 44.3428 -106.8850 170° South 398 458 33,000  Level Salt Lake Center
07:27PM 44.2881 -106.8736 172° South 402 463 33,000  Level Denver Center
07:28PM 44.1644 -106.8436 170° South 405 466 33,000  Level Denver Center
07:29PM 44.0589 -106.8189 170° South 403 464 33,000  Level Denver Center
07:30PM 43.9353 -106.7922 171° South 403 464 33,000  Level Denver Center
07:31PM 43.8297 -106.7669 170° South 403 464 33,000  Level Denver Center
07:32PM 43.7053 -106.7361 170° South 405 466 33,000  Level Denver Center
07:33PM 43.6011 -106.6956 164° South 407 468 33,000  Level Denver Center
07:34PM 43.4767 -106.6500 165° South 412 474 33,000  Level Denver Center
07:35PM 43.3697 -106.6108 165° South 415 478 33,100  Climbing Denver Center
07:36PM 43.2439 -106.5664 166° South 417 480 33,000 -60 Descending Denver Center
07:37PM 43.1369 -106.5261 165° South 417 480 33,000  Level Denver Center
07:38PM 43.0133 -106.4822 165° South 412 474 33,000  Level Denver Center
07:39PM 42.9081 -106.4458 166° South 409 471 33,000  Level Denver Center
07:40PM 42.7856 -106.4008 165° South 409 471 33,000  Level Denver Center
07:41PM 42.6781 -106.3628 165° South 414 476 33,000  Level Denver Center
07:42PM 42.5553 -106.3200 166° South 412 474 33,000  Level Denver Center
07:43PM 42.4489 -106.2833 166° South 411 473 33,000  Level Denver Center
07:44PM 42.3239 -106.2392 165° South 414 476 33,000  Level Denver Center
07:45PM 42.2167 -106.2011 165° South 417 480 33,000  Level Denver Center
07:46PM 42.1097 -106.1636 165° South 416 479 33,000  Level Denver Center
07:47PM 41.9808 -106.1178 165° South 427 491 33,000  Level Denver Center
07:48PM 41.8739 -106.0817 166° South 418 481 33,000  Level Denver Center
07:50PM 41.7660 -106.0436 165° South  Level FlightAware Approximate
07:51PM 41.6336 -105.9983 165° South 427 491 33,000  Level Denver Center
07:52PM 41.5064 -105.9564 166° South 424 488 33,000  Level Denver Center
07:53PM 41.3961 -105.9181 165° South 426 490 33,000  Level Denver Center
07:54PM 41.2661 -105.8739 166° South 432 497 33,000  Level Denver Center
07:55PM 41.1564 -105.8364 166° South 426 490 33,000  Level Denver Center
07:56PM 41.0275 -105.7922 166° South 428 493 33,000 -660 Level Denver Center
07:57PM 40.9031 -105.7517 166° South 433 498 31,700 -1,500 Descending Denver Center
07:58PM 40.7842 -105.7111 166° South 441 507 29,900 -1,980 Descending Denver Center
07:59PM 40.6944 -105.6122 140° Southeast 429 494 27,700 -2,280 Descending Denver Center
08:00PM 40.6283 -105.4869 125° Southeast 422 486 25,200 -2,400 Descending Denver Center
08:01PM 40.5633 -105.3686 126° Southeast 407 468 22,800 -2,160 Descending Denver Center
08:02PM 40.5028 -105.2556 125° Southeast 389 448 20,800 -2,160 Descending Denver Center
08:03PM 40.4156 -105.1744 145° Southeast 337 388 18,400 -2,520 Descending Denver Center
08:04PM 40.3322 -105.0978 145° Southeast 339 390 15,600 -2,580 Descending Denver Center
08:05PM 40.2594 -105.0172 140° Southeast 341 392 13,100 -1,260 Descending Denver Center
08:06PM 40.1811 -104.9333 141° Southeast 339 390 13,000 -360 Descending Denver Center
08:07PM 40.1094 -104.8553 140° Southeast 336 387 12,400 -840 Descending Denver Center
08:08PM 40.0378 -104.7775 140° Southeast 314 361 11,300 -720 Descending Denver Center
08:09PM 39.9789 -104.7139 140° Southeast 280 322 11,000 -180 Descending Denver Center
08:10PM 39.9681 -104.6217 99° East 260 299 11,000  Level Denver Center
08:11PM 39.9661 -104.5328 92° East 222 255 11,000 -600 Level Denver Center
08:12PM 39.9647 -104.4600 91° East 204 235 9,800 -1,260 Descending Denver Center
08:13PM 39.9225 -104.4208 145° Southeast 202 232 8,400 -1,320 Descending Denver Center
08:14PM 39.8767 -104.4533 209° Southwest 204 235 7,100 -1,260 Descending Denver Center